sensor_id;sensor_type;location;lat;lon;timestamp;P1;durP1;ratioP1;P2;durP2;ratioP2
62024;SDS011;47978;49.118;12.146;2023-05-31T00:00:36;8.20;;;2.75;;
62024;SDS011;47978;49.118;12.146;2023-05-31T00:04:38;4.55;;;2.55;;
62024;SDS011;47978;49.118;12.146;2023-05-31T00:08:41;7.20;;;2.35;;
62024;SDS011;47978;49.118;12.146;2023-05-31T00:12:42;3.72;;;2.30;;
62024;SDS011;47978;49.118;12.146;2023-05-31T00:16:44;6.55;;;2.80;;
62024;SDS011;47978;49.118;12.146;2023-05-31T00:21:05;4.82;;;2.70;;
62024;SDS011;47978;49.118;12.146;2023-05-31T00:25:08;6.40;;;2.25;;
62024;SDS011;47978;49.118;12.146;2023-05-31T00:33:11;8.13;;;2.70;;
62024;SDS011;47978;49.118;12.146;2023-05-31T00:37:13;5.30;;;2.88;;
62024;SDS011;47978;49.118;12.146;2023-05-31T00:41:16;8.35;;;3.33;;
62024;SDS011;47978;49.118;12.146;2023-05-31T00:45:18;4.53;;;2.47;;
62024;SDS011;47978;49.118;12.146;2023-05-31T00:49:20;6.05;;;2.80;;
62024;SDS011;47978;49.118;12.146;2023-05-31T00:53:21;9.55;;;2.63;;
62024;SDS011;47978;49.118;12.146;2023-05-31T00:57:25;4.97;;;2.30;;
62024;SDS011;47978;49.118;12.146;2023-05-31T01:01:26;7.85;;;3.08;;
62024;SDS011;47978;49.118;12.146;2023-05-31T01:05:29;6.75;;;2.50;;
62024;SDS011;47978;49.118;12.146;2023-05-31T01:09:30;7.15;;;2.53;;
62024;SDS011;47978;49.118;12.146;2023-05-31T01:13:35;5.03;;;2.30;;
62024;SDS011;47978;49.118;12.146;2023-05-31T01:17:42;5.13;;;2.35;;
62024;SDS011;47978;49.118;12.146;2023-05-31T01:21:48;3.20;;;2.00;;
62024;SDS011;47978;49.118;12.146;2023-05-31T01:30:37;7.78;;;2.90;;
62024;SDS011;47978;49.118;12.146;2023-05-31T01:34:39;9.35;;;2.80;;
62024;SDS011;47978;49.118;12.146;2023-05-31T01:38:40;6.30;;;2.70;;
62024;SDS011;47978;49.118;12.146;2023-05-31T01:42:43;7.82;;;2.83;;
62024;SDS011;47978;49.118;12.146;2023-05-31T01:46:47;5.63;;;2.63;;
62024;SDS011;47978;49.118;12.146;2023-05-31T01:54:52;6.93;;;2.85;;
62024;SDS011;47978;49.118;12.146;2023-05-31T01:58:55;6.65;;;3.00;;
62024;SDS011;47978;49.118;12.146;2023-05-31T02:02:58;5.47;;;3.35;;
62024;SDS011;47978;49.118;12.146;2023-05-31T02:07:01;8.20;;;2.70;;
62024;SDS011;47978;49.118;12.146;2023-05-31T02:11:02;8.07;;;2.60;;
62024;SDS011;47978;49.118;12.146;2023-05-31T02:15:06;5.05;;;2.50;;
62024;SDS011;47978;49.118;12.146;2023-05-31T02:19:08;8.48;;;2.63;;
62024;SDS011;47978;49.118;12.146;2023-05-31T02:23:10;4.32;;;2.40;;
62024;SDS011;47978;49.118;12.146;2023-05-31T02:27:12;5.95;;;2.30;;
62024;SDS011;47978;49.118;12.146;2023-05-31T02:31:15;6.13;;;2.72;;
62024;SDS011;47978;49.118;12.146;2023-05-31T02:35:16;5.55;;;2.50;;
62024;SDS011;47978;49.118;12.146;2023-05-31T02:39:18;6.95;;;2.95;;
62024;SDS011;47978;49.118;12.146;2023-05-31T02:43:19;6.75;;;2.85;;
62024;SDS011;47978;49.118;12.146;2023-05-31T02:47:23;3.70;;;2.22;;
62024;SDS011;47978;49.118;12.146;2023-05-31T02:51:24;7.55;;;2.88;;
62024;SDS011;47978;49.118;12.146;2023-05-31T02:55:26;5.72;;;2.92;;
62024;SDS011;47978;49.118;12.146;2023-05-31T02:59:27;7.32;;;2.90;;
62024;SDS011;47978;49.118;12.146;2023-05-31T03:03:30;9.55;;;2.70;;
62024;SDS011;47978;49.118;12.146;2023-05-31T03:07:32;4.35;;;2.30;;
62024;SDS011;47978;49.118;12.146;2023-05-31T03:11:34;6.15;;;2.90;;
62024;SDS011;47978;49.118;12.146;2023-05-31T03:15:35;6.35;;;3.00;;
62024;SDS011;47978;49.118;12.146;2023-05-31T03:19:38;8.18;;;2.95;;
62024;SDS011;47978;49.118;12.146;2023-05-31T03:23:40;7.50;;;3.53;;
62024;SDS011;47978;49.118;12.146;2023-05-31T03:27:41;8.70;;;3.55;;
62024;SDS011;47978;49.118;12.146;2023-05-31T03:31:43;10.07;;;2.88;;
62024;SDS011;47978;49.118;12.146;2023-05-31T03:35:46;5.85;;;3.20;;
62024;SDS011;47978;49.118;12.146;2023-05-31T03:39:47;5.00;;;2.95;;
62024;SDS011;47978;49.118;12.146;2023-05-31T03:43:49;8.32;;;2.97;;
62024;SDS011;47978;49.118;12.146;2023-05-31T03:47:51;7.75;;;2.85;;
62024;SDS011;47978;49.118;12.146;2023-05-31T03:51:54;9.02;;;3.13;;
62024;SDS011;47978;49.118;12.146;2023-05-31T03:55:55;8.20;;;3.50;;
62024;SDS011;47978;49.118;12.146;2023-05-31T03:59:57;9.25;;;3.03;;
62024;SDS011;47978;49.118;12.146;2023-05-31T04:03:58;4.35;;;2.75;;
62024;SDS011;47978;49.118;12.146;2023-05-31T04:08:02;8.95;;;3.28;;
62024;SDS011;47978;49.118;12.146;2023-05-31T04:16:05;11.75;;;3.13;;
62024;SDS011;47978;49.118;12.146;2023-05-31T04:20:07;10.75;;;3.20;;
62024;SDS011;47978;49.118;12.146;2023-05-31T04:24:11;8.23;;;2.80;;
62024;SDS011;47978;49.118;12.146;2023-05-31T04:28:12;5.78;;;2.75;;
62024;SDS011;47978;49.118;12.146;2023-05-31T04:32:14;5.80;;;2.97;;
62024;SDS011;47978;49.118;12.146;2023-05-31T04:36:16;8.35;;;2.88;;
62024;SDS011;47978;49.118;12.146;2023-05-31T04:40:19;8.57;;;3.22;;
62024;SDS011;47978;49.118;12.146;2023-05-31T04:44:20;4.93;;;2.55;;
62024;SDS011;47978;49.118;12.146;2023-05-31T04:48:22;8.55;;;3.30;;
62024;SDS011;47978;49.118;12.146;2023-05-31T04:52:23;11.30;;;3.00;;
62024;SDS011;47978;49.118;12.146;2023-05-31T04:56:26;7.57;;;3.08;;
62024;SDS011;47978;49.118;12.146;2023-05-31T05:00:28;7.30;;;3.03;;
62024;SDS011;47978;49.118;12.146;2023-05-31T05:04:29;6.07;;;3.25;;
62024;SDS011;47978;49.118;12.146;2023-05-31T05:08:31;9.10;;;3.08;;
62024;SDS011;47978;49.118;12.146;2023-05-31T05:12:34;5.03;;;2.80;;
62024;SDS011;47978;49.118;12.146;2023-05-31T05:16:36;8.90;;;3.65;;
62024;SDS011;47978;49.118;12.146;2023-05-31T05:20:37;7.97;;;2.47;;
62024;SDS011;47978;49.118;12.146;2023-05-31T05:24:39;5.75;;;2.97;;
62024;SDS011;47978;49.118;12.146;2023-05-31T05:28:42;4.75;;;2.63;;
62024;SDS011;47978;49.118;12.146;2023-05-31T05:32:43;8.65;;;2.80;;
62024;SDS011;47978;49.118;12.146;2023-05-31T05:36:45;5.88;;;3.13;;
62024;SDS011;47978;49.118;12.146;2023-05-31T05:40:47;5.97;;;2.92;;
62024;SDS011;47978;49.118;12.146;2023-05-31T05:44:50;6.53;;;2.85;;
62024;SDS011;47978;49.118;12.146;2023-05-31T05:48:51;8.18;;;2.85;;
62024;SDS011;47978;49.118;12.146;2023-05-31T05:52:53;7.55;;;2.60;;
62024;SDS011;47978;49.118;12.146;2023-05-31T05:56:54;6.68;;;3.20;;
62024;SDS011;47978;49.118;12.146;2023-05-31T06:00:57;9.20;;;2.67;;
62024;SDS011;47978;49.118;12.146;2023-05-31T06:04:59;5.40;;;2.65;;
62024;SDS011;47978;49.118;12.146;2023-05-31T06:09:01;6.88;;;2.78;;
62024;SDS011;47978;49.118;12.146;2023-05-31T06:13:03;9.07;;;3.08;;
62024;SDS011;47978;49.118;12.146;2023-05-31T06:17:06;4.03;;;2.90;;
62024;SDS011;47978;49.118;12.146;2023-05-31T06:21:08;7.35;;;2.75;;
62024;SDS011;47978;49.118;12.146;2023-05-31T06:25:09;9.90;;;3.38;;
62024;SDS011;47978;49.118;12.146;2023-05-31T06:29:11;6.55;;;2.63;;
62024;SDS011;47978;49.118;12.146;2023-05-31T06:33:14;8.35;;;2.53;;
62024;SDS011;47978;49.118;12.146;2023-05-31T06:37:15;4.88;;;2.60;;
62024;SDS011;47978;49.118;12.146;2023-05-31T06:41:17;6.90;;;2.97;;
62024;SDS011;47978;49.118;12.146;2023-05-31T06:45:18;10.10;;;2.65;;
62024;SDS011;47978;49.118;12.146;2023-05-31T06:49:21;6.53;;;2.47;;
62024;SDS011;47978;49.118;12.146;2023-05-31T06:53:23;7.95;;;3.35;;
62024;SDS011;47978;49.118;12.146;2023-05-31T06:57:25;5.07;;;2.70;;
62024;SDS011;47978;49.118;12.146;2023-05-31T07:01:26;4.57;;;2.25;;
62024;SDS011;47978;49.118;12.146;2023-05-31T07:05:29;11.43;;;2.90;;
62024;SDS011;47978;49.118;12.146;2023-05-31T07:09:31;7.47;;;2.70;;
62024;SDS011;47978;49.118;12.146;2023-05-31T07:13:32;11.85;;;2.92;;
62024;SDS011;47978;49.118;12.146;2023-05-31T07:17:34;7.13;;;2.65;;
62024;SDS011;47978;49.118;12.146;2023-05-31T07:21:37;5.28;;;2.65;;
62024;SDS011;47978;49.118;12.146;2023-05-31T07:25:38;8.27;;;2.67;;
62024;SDS011;47978;49.118;12.146;2023-05-31T07:29:42;7.60;;;2.88;;
62024;SDS011;47978;49.118;12.146;2023-05-31T07:33:43;7.22;;;2.47;;
62024;SDS011;47978;49.118;12.146;2023-05-31T07:37:46;6.53;;;3.10;;
62024;SDS011;47978;49.118;12.146;2023-05-31T07:41:48;10.48;;;3.28;;
62024;SDS011;47978;49.118;12.146;2023-05-31T07:45:50;6.80;;;3.00;;
62024;SDS011;47978;49.118;12.146;2023-05-31T07:49:52;6.82;;;2.83;;
62024;SDS011;47978;49.118;12.146;2023-05-31T07:53:55;5.70;;;2.40;;
62024;SDS011;47978;49.118;12.146;2023-05-31T07:57:56;7.45;;;2.83;;
62024;SDS011;47978;49.118;12.146;2023-05-31T08:01:58;8.68;;;2.80;;
62024;SDS011;47978;49.118;12.146;2023-05-31T08:06:00;8.63;;;3.42;;
62024;SDS011;47978;49.118;12.146;2023-05-31T08:10:03;7.60;;;2.35;;
62024;SDS011;47978;49.118;12.146;2023-05-31T08:14:05;7.05;;;2.75;;
62024;SDS011;47978;49.118;12.146;2023-05-31T08:18:07;8.15;;;3.75;;
62024;SDS011;47978;49.118;12.146;2023-05-31T08:22:09;9.25;;;2.97;;
62024;SDS011;47978;49.118;12.146;2023-05-31T08:26:12;13.82;;;3.58;;
62024;SDS011;47978;49.118;12.146;2023-05-31T08:30:13;7.50;;;3.00;;
62024;SDS011;47978;49.118;12.146;2023-05-31T08:34:15;10.80;;;2.92;;
62024;SDS011;47978;49.118;12.146;2023-05-31T08:38:17;6.07;;;3.20;;
62024;SDS011;47978;49.118;12.146;2023-05-31T08:42:21;8.07;;;2.95;;
62024;SDS011;47978;49.118;12.146;2023-05-31T08:46:26;7.00;;;2.83;;
62024;SDS011;47978;49.118;12.146;2023-05-31T08:50:28;5.95;;;2.60;;
62024;SDS011;47978;49.118;12.146;2023-05-31T08:54:31;11.25;;;3.00;;
62024;SDS011;47978;49.118;12.146;2023-05-31T08:58:36;5.95;;;3.15;;
62024;SDS011;47978;49.118;12.146;2023-05-31T09:02:39;4.63;;;2.50;;
62024;SDS011;47978;49.118;12.146;2023-05-31T09:06:43;8.00;;;2.58;;
62024;SDS011;47978;49.118;12.146;2023-05-31T09:10:44;7.63;;;3.13;;
62024;SDS011;47978;49.118;12.146;2023-05-31T09:14:47;9.70;;;3.23;;
62024;SDS011;47978;49.118;12.146;2023-05-31T09:18:51;7.85;;;2.85;;
62024;SDS011;47978;49.118;12.146;2023-05-31T09:23:02;6.03;;;2.70;;
62024;SDS011;47978;49.118;12.146;2023-05-31T09:27:04;9.95;;;3.25;;
62024;SDS011;47978;49.118;12.146;2023-05-31T09:31:07;5.77;;;3.07;;
62024;SDS011;47978;49.118;12.146;2023-05-31T09:35:09;9.70;;;3.25;;
62024;SDS011;47978;49.118;12.146;2023-05-31T09:39:12;6.78;;;3.10;;
62024;SDS011;47978;49.118;12.146;2023-05-31T09:43:15;9.07;;;2.85;;
62024;SDS011;47978;49.118;12.146;2023-05-31T09:47:18;8.27;;;3.13;;
62024;SDS011;47978;49.118;12.146;2023-05-31T09:51:24;7.65;;;3.25;;
62024;SDS011;47978;49.118;12.146;2023-05-31T09:55:38;6.03;;;3.20;;
62024;SDS011;47978;49.118;12.146;2023-05-31T09:59:40;9.00;;;3.38;;
62024;SDS011;47978;49.118;12.146;2023-05-31T10:03:43;11.00;;;3.20;;
62024;SDS011;47978;49.118;12.146;2023-05-31T10:07:46;7.78;;;3.10;;
62024;SDS011;47978;49.118;12.146;2023-05-31T10:11:50;8.88;;;3.72;;
62024;SDS011;47978;49.118;12.146;2023-05-31T10:15:57;9.73;;;3.92;;
62024;SDS011;47978;49.118;12.146;2023-05-31T10:20:08;10.90;;;3.70;;
62024;SDS011;47978;49.118;12.146;2023-05-31T10:24:17;9.98;;;3.13;;
62024;SDS011;47978;49.118;12.146;2023-05-31T10:28:24;7.00;;;3.08;;
62024;SDS011;47978;49.118;12.146;2023-05-31T10:32:29;8.00;;;3.28;;
62024;SDS011;47978;49.118;12.146;2023-05-31T10:36:35;7.63;;;2.88;;
62024;SDS011;47978;49.118;12.146;2023-05-31T10:40:39;8.32;;;3.03;;
62024;SDS011;47978;49.118;12.146;2023-05-31T10:45:04;11.30;;;3.60;;
62024;SDS011;47978;49.118;12.146;2023-05-31T10:49:14;10.05;;;3.53;;
62024;SDS011;47978;49.118;12.146;2023-05-31T10:53:18;13.10;;;3.97;;
62024;SDS011;47978;49.118;12.146;2023-05-31T10:57:19;6.03;;;3.30;;
62024;SDS011;47978;49.118;12.146;2023-05-31T11:01:21;9.97;;;3.80;;
62024;SDS011;47978;49.118;12.146;2023-05-31T11:05:24;10.95;;;4.18;;
62024;SDS011;47978;49.118;12.146;2023-05-31T11:09:28;7.40;;;3.22;;
62024;SDS011;47978;49.118;12.146;2023-05-31T11:17:58;9.98;;;3.70;;
62024;SDS011;47978;49.118;12.146;2023-05-31T11:22:05;7.00;;;3.65;;
62024;SDS011;47978;49.118;12.146;2023-05-31T11:26:11;6.20;;;3.33;;
62024;SDS011;47978;49.118;12.146;2023-05-31T11:30:16;6.40;;;3.33;;
62024;SDS011;47978;49.118;12.146;2023-05-31T11:34:18;6.65;;;3.72;;
62024;SDS011;47978;49.118;12.146;2023-05-31T11:38:19;7.70;;;3.70;;
62024;SDS011;47978;49.118;12.146;2023-05-31T11:42:22;7.80;;;3.35;;
62024;SDS011;47978;49.118;12.146;2023-05-31T11:46:24;8.73;;;3.90;;
62024;SDS011;47978;49.118;12.146;2023-05-31T11:50:26;9.07;;;3.83;;
62024;SDS011;47978;49.118;12.146;2023-05-31T11:54:28;8.48;;;3.67;;
62024;SDS011;47978;49.118;12.146;2023-05-31T11:58:31;11.40;;;3.40;;
62024;SDS011;47978;49.118;12.146;2023-05-31T12:02:34;7.25;;;3.30;;
62024;SDS011;47978;49.118;12.146;2023-05-31T12:06:35;6.60;;;3.72;;
62024;SDS011;47978;49.118;12.146;2023-05-31T12:10:37;9.00;;;3.70;;
62024;SDS011;47978;49.118;12.146;2023-05-31T12:14:41;12.55;;;3.78;;
62024;SDS011;47978;49.118;12.146;2023-05-31T12:18:50;11.48;;;4.05;;
62024;SDS011;47978;49.118;12.146;2023-05-31T12:22:52;9.57;;;4.00;;
62024;SDS011;47978;49.118;12.146;2023-05-31T12:26:53;9.93;;;3.63;;
62024;SDS011;47978;49.118;12.146;2023-05-31T12:30:56;7.15;;;3.60;;
62024;SDS011;47978;49.118;12.146;2023-05-31T12:35:05;6.88;;;3.70;;
62024;SDS011;47978;49.118;12.146;2023-05-31T12:39:08;12.40;;;3.92;;
62024;SDS011;47978;49.118;12.146;2023-05-31T12:47:13;6.60;;;3.70;;
62024;SDS011;47978;49.118;12.146;2023-05-31T12:51:19;14.93;;;4.30;;
62024;SDS011;47978;49.118;12.146;2023-05-31T12:55:21;8.68;;;4.13;;
62024;SDS011;47978;49.118;12.146;2023-05-31T12:59:23;9.93;;;3.60;;
62024;SDS011;47978;49.118;12.146;2023-05-31T13:03:26;9.37;;;3.97;;
62024;SDS011;47978;49.118;12.146;2023-05-31T13:07:28;7.30;;;4.30;;
62024;SDS011;47978;49.118;12.146;2023-05-31T13:11:31;6.97;;;3.63;;
62024;SDS011;47978;49.118;12.146;2023-05-31T13:15:33;7.70;;;3.47;;
62024;SDS011;47978;49.118;12.146;2023-05-31T13:19:36;12.05;;;4.25;;
62024;SDS011;47978;49.118;12.146;2023-05-31T13:23:38;12.75;;;4.47;;
62024;SDS011;47978;49.118;12.146;2023-05-31T13:27:39;9.55;;;3.70;;
62024;SDS011;47978;49.118;12.146;2023-05-31T13:31:41;6.77;;;3.83;;
62024;SDS011;47978;49.118;12.146;2023-05-31T13:35:44;7.87;;;3.70;;
62024;SDS011;47978;49.118;12.146;2023-05-31T13:39:46;7.28;;;4.13;;
62024;SDS011;47978;49.118;12.146;2023-05-31T13:43:48;8.55;;;3.92;;
62024;SDS011;47978;49.118;12.146;2023-05-31T13:51:54;9.40;;;4.38;;
62024;SDS011;47978;49.118;12.146;2023-05-31T13:55:55;8.88;;;4.07;;
62024;SDS011;47978;49.118;12.146;2023-05-31T14:00:02;7.13;;;3.97;;
62024;SDS011;47978;49.118;12.146;2023-05-31T14:04:04;8.25;;;3.80;;
62024;SDS011;47978;49.118;12.146;2023-05-31T14:08:07;7.88;;;4.22;;
62024;SDS011;47978;49.118;12.146;2023-05-31T14:12:09;7.82;;;4.40;;
62024;SDS011;47978;49.118;12.146;2023-05-31T14:16:11;9.88;;;4.53;;
62024;SDS011;47978;49.118;12.146;2023-05-31T14:20:13;8.60;;;4.65;;
62024;SDS011;47978;49.118;12.146;2023-05-31T14:24:16;7.85;;;3.88;;
62024;SDS011;47978;49.118;12.146;2023-05-31T14:28:17;10.43;;;4.03;;
62024;SDS011;47978;49.118;12.146;2023-05-31T14:32:19;7.90;;;4.53;;
62024;SDS011;47978;49.118;12.146;2023-05-31T14:36:21;10.65;;;4.30;;
62024;SDS011;47978;49.118;12.146;2023-05-31T14:40:24;6.70;;;4.00;;
62024;SDS011;47978;49.118;12.146;2023-05-31T14:44:26;7.88;;;4.32;;
62024;SDS011;47978;49.118;12.146;2023-05-31T14:48:27;8.55;;;4.22;;
62024;SDS011;47978;49.118;12.146;2023-05-31T14:52:29;7.20;;;4.15;;
62024;SDS011;47978;49.118;12.146;2023-05-31T14:56:32;8.20;;;4.00;;
62024;SDS011;47978;49.118;12.146;2023-05-31T15:00:33;9.20;;;3.63;;
62024;SDS011;47978;49.118;12.146;2023-05-31T15:04:35;10.88;;;4.55;;
62024;SDS011;47978;49.118;12.146;2023-05-31T15:08:37;6.72;;;3.92;;
62024;SDS011;47978;49.118;12.146;2023-05-31T15:12:40;8.93;;;3.70;;
62024;SDS011;47978;49.118;12.146;2023-05-31T15:16:42;9.73;;;4.70;;
62024;SDS011;47978;49.118;12.146;2023-05-31T15:20:43;11.03;;;4.77;;
62024;SDS011;47978;49.118;12.146;2023-05-31T15:24:45;10.77;;;4.07;;
62024;SDS011;47978;49.118;12.146;2023-05-31T15:28:48;10.35;;;4.38;;
62024;SDS011;47978;49.118;12.146;2023-05-31T15:32:49;8.32;;;4.25;;
62024;SDS011;47978;49.118;12.146;2023-05-31T15:36:51;11.57;;;4.38;;
62024;SDS011;47978;49.118;12.146;2023-05-31T15:40:53;7.57;;;3.93;;
62024;SDS011;47978;49.118;12.146;2023-05-31T15:44:56;11.65;;;4.18;;
62024;SDS011;47978;49.118;12.146;2023-05-31T15:48:57;6.07;;;3.63;;
62024;SDS011;47978;49.118;12.146;2023-05-31T15:52:59;8.40;;;4.20;;
62024;SDS011;47978;49.118;12.146;2023-05-31T15:57:01;5.63;;;4.17;;
62024;SDS011;47978;49.118;12.146;2023-05-31T16:01:04;10.77;;;4.13;;
62024;SDS011;47978;49.118;12.146;2023-05-31T16:05:06;6.18;;;4.20;;
62024;SDS011;47978;49.118;12.146;2023-05-31T16:09:08;6.85;;;4.18;;
62024;SDS011;47978;49.118;12.146;2023-05-31T16:13:09;8.38;;;4.18;;
62024;SDS011;47978;49.118;12.146;2023-05-31T16:17:12;11.00;;;4.38;;
62024;SDS011;47978;49.118;12.146;2023-05-31T16:21:14;7.47;;;4.15;;
62024;SDS011;47978;49.118;12.146;2023-05-31T16:25:15;5.72;;;4.03;;
62024;SDS011;47978;49.118;12.146;2023-05-31T16:29:17;8.47;;;4.50;;
62024;SDS011;47978;49.118;12.146;2023-05-31T16:33:20;12.40;;;4.70;;
62024;SDS011;47978;49.118;12.146;2023-05-31T16:37:22;9.63;;;3.85;;
62024;SDS011;47978;49.118;12.146;2023-05-31T16:41:25;7.82;;;4.20;;
62024;SDS011;47978;49.118;12.146;2023-05-31T16:45:26;11.43;;;4.15;;
62024;SDS011;47978;49.118;12.146;2023-05-31T16:49:29;8.85;;;4.22;;
62024;SDS011;47978;49.118;12.146;2023-05-31T16:53:31;6.45;;;4.15;;
62024;SDS011;47978;49.118;12.146;2023-05-31T16:57:32;8.85;;;4.45;;
62024;SDS011;47978;49.118;12.146;2023-05-31T17:01:34;9.02;;;4.20;;
62024;SDS011;47978;49.118;12.146;2023-05-31T17:05:37;10.07;;;3.90;;
62024;SDS011;47978;49.118;12.146;2023-05-31T17:09:39;10.20;;;5.47;;
62024;SDS011;47978;49.118;12.146;2023-05-31T17:13:41;8.52;;;4.68;;
62024;SDS011;47978;49.118;12.146;2023-05-31T17:17:42;9.00;;;4.53;;
62024;SDS011;47978;49.118;12.146;2023-05-31T17:21:45;10.93;;;4.50;;
62024;SDS011;47978;49.118;12.146;2023-05-31T17:25:47;10.10;;;4.82;;
62024;SDS011;47978;49.118;12.146;2023-05-31T17:29:49;10.82;;;4.30;;
62024;SDS011;47978;49.118;12.146;2023-05-31T17:33:50;8.75;;;4.68;;
62024;SDS011;47978;49.118;12.146;2023-05-31T17:37:53;9.15;;;3.92;;
62024;SDS011;47978;49.118;12.146;2023-05-31T17:41:55;7.75;;;4.25;;
62024;SDS011;47978;49.118;12.146;2023-05-31T17:45:57;9.93;;;4.05;;
62024;SDS011;47978;49.118;12.146;2023-05-31T17:49:58;6.40;;;4.32;;
62024;SDS011;47978;49.118;12.146;2023-05-31T17:54:02;7.55;;;4.43;;
62024;SDS011;47978;49.118;12.146;2023-05-31T17:58:03;10.48;;;4.20;;
62024;SDS011;47978;49.118;12.146;2023-05-31T18:02:05;11.00;;;4.63;;
62024;SDS011;47978;49.118;12.146;2023-05-31T18:06:07;6.40;;;3.78;;
62024;SDS011;47978;49.118;12.146;2023-05-31T18:10:10;9.48;;;4.55;;
62024;SDS011;47978;49.118;12.146;2023-05-31T18:14:12;8.88;;;4.43;;
62024;SDS011;47978;49.118;12.146;2023-05-31T18:18:14;6.78;;;3.80;;
62024;SDS011;47978;49.118;12.146;2023-05-31T18:22:19;10.65;;;4.03;;
62024;SDS011;47978;49.118;12.146;2023-05-31T18:26:21;10.15;;;4.78;;
62024;SDS011;47978;49.118;12.146;2023-05-31T18:30:23;9.93;;;4.85;;
62024;SDS011;47978;49.118;12.146;2023-05-31T18:34:25;7.15;;;4.30;;
62024;SDS011;47978;49.118;12.146;2023-05-31T18:38:26;12.52;;;5.53;;
62024;SDS011;47978;49.118;12.146;2023-05-31T18:42:29;11.23;;;4.78;;
62024;SDS011;47978;49.118;12.146;2023-05-31T18:46:31;9.32;;;5.13;;
62024;SDS011;47978;49.118;12.146;2023-05-31T18:50:33;9.85;;;5.50;;
62024;SDS011;47978;49.118;12.146;2023-05-31T18:54:34;9.80;;;6.10;;
62024;SDS011;47978;49.118;12.146;2023-05-31T18:58:37;8.98;;;5.25;;
62024;SDS011;47978;49.118;12.146;2023-05-31T19:06:40;10.82;;;5.15;;
62024;SDS011;47978;49.118;12.146;2023-05-31T19:10:42;7.05;;;4.35;;
62024;SDS011;47978;49.118;12.146;2023-05-31T19:14:45;8.10;;;4.35;;
62024;SDS011;47978;49.118;12.146;2023-05-31T19:22:49;7.30;;;4.38;;
62024;SDS011;47978;49.118;12.146;2023-05-31T19:26:52;8.50;;;4.65;;
62024;SDS011;47978;49.118;12.146;2023-05-31T19:30:55;7.93;;;5.28;;
62024;SDS011;47978;49.118;12.146;2023-05-31T19:34:56;8.40;;;4.20;;
62024;SDS011;47978;49.118;12.146;2023-05-31T19:39:00;7.53;;;4.85;;
62024;SDS011;47978;49.118;12.146;2023-05-31T19:43:02;7.38;;;4.68;;
62024;SDS011;47978;49.118;12.146;2023-05-31T19:47:08;8.50;;;4.88;;
62024;SDS011;47978;49.118;12.146;2023-05-31T19:55:11;9.40;;;4.63;;
62024;SDS011;47978;49.118;12.146;2023-05-31T19:59:13;6.35;;;4.10;;
62024;SDS011;47978;49.118;12.146;2023-05-31T20:03:16;6.50;;;3.83;;
62024;SDS011;47978;49.118;12.146;2023-05-31T20:11:19;6.57;;;3.97;;
62024;SDS011;47978;49.118;12.146;2023-05-31T20:15:20;8.30;;;4.20;;
62024;SDS011;47978;49.118;12.146;2023-05-31T20:19:23;9.93;;;4.35;;
62024;SDS011;47978;49.118;12.146;2023-05-31T20:23:25;8.25;;;4.10;;
62024;SDS011;47978;49.118;12.146;2023-05-31T20:27:26;9.90;;;4.93;;
62024;SDS011;47978;49.118;12.146;2023-05-31T20:31:28;6.68;;;4.07;;
62024;SDS011;47978;49.118;12.146;2023-05-31T20:35:31;7.80;;;3.83;;
62024;SDS011;47978;49.118;12.146;2023-05-31T20:39:32;8.20;;;4.75;;
62024;SDS011;47978;49.118;12.146;2023-05-31T20:43:34;7.60;;;4.78;;
62024;SDS011;47978;49.118;12.146;2023-05-31T20:47:36;9.45;;;4.50;;
62024;SDS011;47978;49.118;12.146;2023-05-31T20:51:39;12.35;;;4.28;;
62024;SDS011;47978;49.118;12.146;2023-05-31T20:55:41;7.70;;;3.92;;
62024;SDS011;47978;49.118;12.146;2023-05-31T20:59:43;10.75;;;4.45;;
62024;SDS011;47978;49.118;12.146;2023-05-31T21:03:45;8.32;;;4.20;;
62024;SDS011;47978;49.118;12.146;2023-05-31T21:07:48;7.35;;;3.63;;
62024;SDS011;47978;49.118;12.146;2023-05-31T21:11:49;8.82;;;3.78;;
62024;SDS011;47978;49.118;12.146;2023-05-31T21:15:51;11.35;;;5.43;;
62024;SDS011;47978;49.118;12.146;2023-05-31T21:19:53;10.63;;;3.97;;
62024;SDS011;47978;49.118;12.146;2023-05-31T21:23:56;9.20;;;3.83;;
62024;SDS011;47978;49.118;12.146;2023-05-31T21:27:57;11.60;;;4.35;;
62024;SDS011;47978;49.118;12.146;2023-05-31T21:31:59;9.65;;;4.25;;
62024;SDS011;47978;49.118;12.146;2023-05-31T21:36:00;7.47;;;4.30;;
62024;SDS011;47978;49.118;12.146;2023-05-31T21:40:04;7.05;;;3.60;;
62024;SDS011;47978;49.118;12.146;2023-05-31T21:44:06;7.68;;;3.80;;
62024;SDS011;47978;49.118;12.146;2023-05-31T21:48:07;6.82;;;4.03;;
62024;SDS011;47978;49.118;12.146;2023-05-31T21:52:09;9.20;;;4.10;;
62024;SDS011;47978;49.118;12.146;2023-05-31T21:56:12;5.70;;;3.40;;
62024;SDS011;47978;49.118;12.146;2023-05-31T22:00:14;7.30;;;3.95;;
62024;SDS011;47978;49.118;12.146;2023-05-31T22:04:16;6.60;;;3.38;;
62024;SDS011;47978;49.118;12.146;2023-05-31T22:08:17;10.90;;;3.42;;
62024;SDS011;47978;49.118;12.146;2023-05-31T22:12:20;7.88;;;3.40;;
62024;SDS011;47978;49.118;12.146;2023-05-31T22:16:22;15.55;;;5.70;;
62024;SDS011;47978;49.118;12.146;2023-05-31T22:20:24;10.10;;;3.85;;
62024;SDS011;47978;49.118;12.146;2023-05-31T22:24:26;8.13;;;3.63;;
62024;SDS011;47978;49.118;12.146;2023-05-31T22:28:29;10.88;;;3.85;;
62024;SDS011;47978;49.118;12.146;2023-05-31T22:32:30;5.80;;;3.80;;
62024;SDS011;47978;49.118;12.146;2023-05-31T22:36:32;8.15;;;4.18;;
62024;SDS011;47978;49.118;12.146;2023-05-31T22:40:34;7.88;;;3.75;;
62024;SDS011;47978;49.118;12.146;2023-05-31T22:44:37;12.48;;;4.40;;
62024;SDS011;47978;49.118;12.146;2023-05-31T22:48:39;6.78;;;3.90;;
62024;SDS011;47978;49.118;12.146;2023-05-31T22:52:40;10.73;;;3.35;;
62024;SDS011;47978;49.118;12.146;2023-05-31T22:56:42;8.23;;;3.85;;
62024;SDS011;47978;49.118;12.146;2023-05-31T23:00:45;11.50;;;3.78;;
62024;SDS011;47978;49.118;12.146;2023-05-31T23:08:48;9.05;;;4.75;;
62024;SDS011;47978;49.118;12.146;2023-05-31T23:12:49;9.07;;;4.07;;
62024;SDS011;47978;49.118;12.146;2023-05-31T23:16:52;9.38;;;4.10;;
62024;SDS011;47978;49.118;12.146;2023-05-31T23:20:54;11.18;;;4.30;;
62024;SDS011;47978;49.118;12.146;2023-05-31T23:24:55;6.88;;;3.50;;
62024;SDS011;47978;49.118;12.146;2023-05-31T23:28:57;9.02;;;3.85;;
62024;SDS011;47978;49.118;12.146;2023-05-31T23:33:00;8.00;;;4.32;;
62024;SDS011;47978;49.118;12.146;2023-05-31T23:37:01;8.27;;;4.00;;
62024;SDS011;47978;49.118;12.146;2023-05-31T23:41:03;8.85;;;4.30;;
62024;SDS011;47978;49.118;12.146;2023-05-31T23:45:05;7.57;;;4.00;;
62024;SDS011;47978;49.118;12.146;2023-05-31T23:49:09;9.20;;;4.47;;
62024;SDS011;47978;49.118;12.146;2023-05-31T23:53:10;10.60;;;4.78;;
62024;SDS011;47978;49.118;12.146;2023-05-31T23:57:12;6.47;;;4.22;;
